createdAt,value
2022-10-06T00:04:43.655Z,15.43
2022-10-06T00:10:45.520Z,9.20
2022-10-06T00:16:47.242Z,11.60
2022-10-06T00:22:52.769Z,11.97
2022-10-06T00:28:54.551Z,7.87
2022-10-06T00:34:58.790Z,14.60
2022-10-06T00:41:00.706Z,19.40
2022-10-06T00:47:03.255Z,9.23
2022-10-06T00:53:06.274Z,8.83
2022-10-06T00:59:17.535Z,11.37
2022-10-06T01:05:32.191Z,10.33
2022-10-06T01:11:37.866Z,6.57
2022-10-06T01:17:50.917Z,10.27
2022-10-06T01:23:53.181Z,7.33
2022-10-06T01:29:56.563Z,7.13
2022-10-06T01:35:58.367Z,6.67
2022-10-06T01:42:00.071Z,11.17
2022-10-06T01:48:01.963Z,8.70
2022-10-06T01:54:03.878Z,13.00
2022-10-06T02:00:07.058Z,11.17
2022-10-06T02:06:09.717Z,7.33
2022-10-06T02:12:11.435Z,9.57
2022-10-06T02:18:13.143Z,9.33
2022-10-06T02:24:14.881Z,8.97
2022-10-06T02:30:16.971Z,10.73
2022-10-06T02:36:19.050Z,11.13
2022-10-06T02:42:20.785Z,10.47
2022-10-06T02:48:24.580Z,19.10
2022-10-06T02:54:26.305Z,7.87
2022-10-06T03:00:28.145Z,11.33
2022-10-06T03:06:31.280Z,10.20
2022-10-06T03:12:33.009Z,7.43
2022-10-06T03:18:36.224Z,13.33
2022-10-06T03:24:38.010Z,10.07
2022-10-06T03:30:39.747Z,8.47
2022-10-06T03:36:41.783Z,12.93
2022-10-06T03:42:43.500Z,7.20
2022-10-06T03:48:46.104Z,8.20
2022-10-06T03:54:47.868Z,12.83
2022-10-06T04:00:49.689Z,8.10
2022-10-06T04:06:51.593Z,15.77
2022-10-06T04:12:53.369Z,13.87
2022-10-06T04:18:58.063Z,11.47
2022-10-06T04:24:59.770Z,11.07
2022-10-06T04:31:01.988Z,19.87
2022-10-06T04:37:04.211Z,10.60
2022-10-06T04:43:06.014Z,13.90
2022-10-06T04:49:07.796Z,8.07
2022-10-06T04:55:11.207Z,15.37
2022-10-06T05:01:18.582Z,11.67
2022-10-06T05:07:20.402Z,16.83
2022-10-06T05:13:22.165Z,17.70
2022-10-06T05:19:23.900Z,27.90
2022-10-06T05:25:25.684Z,18.87
2022-10-06T05:31:33.093Z,23.50
2022-10-06T05:37:34.929Z,21.63
2022-10-06T05:43:37.691Z,18.47
2022-10-06T05:49:39.530Z,29.43
2022-10-06T05:55:43.828Z,44.40
2022-10-06T06:01:45.813Z,28.57
2022-10-06T06:07:47.753Z,23.90
2022-10-06T06:13:59.237Z,19.37
2022-10-06T06:20:01.188Z,27.07
2022-10-06T06:26:09.295Z,133.87
2022-10-06T06:32:11.405Z,99.70
2022-10-06T06:51:15.754Z,29.00
2022-10-06T06:57:19.688Z,24.63
2022-10-06T07:03:56.225Z,20.87
2022-10-06T07:22:48.462Z,14.93
2022-10-06T07:54:53.879Z,20.73
2022-10-06T11:54:45.515Z,4.15
2022-10-06T13:00:43.411Z,9.90
2022-10-06T16:11:15.365Z,22.35
2022-10-06T16:23:35.103Z,56.10
2022-10-06T16:29:36.967Z,58.95
2022-10-06T16:35:38.968Z,47.40
2022-10-06T16:41:41.084Z,48.23
2022-10-06T16:47:43.407Z,40.87
2022-10-06T16:53:51.005Z,61.60
2022-10-06T16:59:52.876Z,53.33
2022-10-06T17:05:54.737Z,54.17
2022-10-06T17:12:01.955Z,33.50
2022-10-06T17:18:03.834Z,79.40
2022-10-06T17:24:06.304Z,33.80
2022-10-06T17:30:08.842Z,24.30
2022-10-06T17:36:16.751Z,24.30
2022-10-06T17:42:18.507Z,32.40
2022-10-06T17:48:20.295Z,27.30
2022-10-06T17:54:24.454Z,20.30
2022-10-06T18:00:26.203Z,26.53
2022-10-06T18:06:29.839Z,61.87
2022-10-06T18:12:36.297Z,43.07
2022-10-06T18:18:43.932Z,18.47
2022-10-06T18:24:45.729Z,28.20
2022-10-06T18:30:51.471Z,23.53
2022-10-06T18:36:53.312Z,31.87
2022-10-06T18:42:55.113Z,20.60
2022-10-06T18:48:59.511Z,38.37
2022-10-06T18:55:01.357Z,27.17
2022-10-06T19:01:07.206Z,31.63
2022-10-06T19:07:09.398Z,15.50
2022-10-06T19:13:11.537Z,15.30
2022-10-06T19:19:19.410Z,20.97
2022-10-06T19:25:21.968Z,39.00
2022-10-06T19:31:23.813Z,26.93
2022-10-06T19:37:30.311Z,29.67
2022-10-06T19:43:32.143Z,28.47
2022-10-06T19:49:35.318Z,27.80
2022-10-06T19:55:37.114Z,14.63
2022-10-06T20:01:39.191Z,15.30
2022-10-06T20:07:43.979Z,11.97
2022-10-06T20:13:46.635Z,9.77
2022-10-06T20:19:48.503Z,9.63
2022-10-06T20:25:50.260Z,19.93
2022-10-06T20:31:54.008Z,13.90
2022-10-06T20:37:55.742Z,16.27
2022-10-06T20:43:58.649Z,13.17
2022-10-06T20:50:00.426Z,22.77
2022-10-06T20:56:02.318Z,18.17
2022-10-06T21:02:05.384Z,18.10
2022-10-06T21:08:07.094Z,16.13
2022-10-06T21:14:11.535Z,17.27
2022-10-06T21:20:13.319Z,22.43
2022-10-06T21:26:18.601Z,10.83
2022-10-06T21:32:20.284Z,10.37
2022-10-06T21:38:22.021Z,16.33
2022-10-06T21:44:23.728Z,13.83
2022-10-06T21:50:25.553Z,14.57
2022-10-06T21:56:30.235Z,17.33
2022-10-06T22:02:32.009Z,12.30
2022-10-06T22:08:35.454Z,16.40
2022-10-06T22:14:37.622Z,14.77
2022-10-06T22:20:39.455Z,17.03
2022-10-06T22:26:42.817Z,17.00
2022-10-06T22:32:44.584Z,18.83
2022-10-06T22:38:46.386Z,13.83
2022-10-06T22:44:48.267Z,16.20
2022-10-06T22:50:50.661Z,10.30
2022-10-06T22:56:52.426Z,11.07
2022-10-06T23:02:55.105Z,13.07
2022-10-06T23:08:57.390Z,13.50
2022-10-06T23:14:59.159Z,13.53
2022-10-06T23:21:05.632Z,11.40
2022-10-06T23:27:07.433Z,10.60
2022-10-06T23:33:09.246Z,13.37
2022-10-06T23:39:11.135Z,11.93
2022-10-06T23:45:13.045Z,12.07
2022-10-06T23:57:31.721Z,9.43
